createdAt,value
2019-04-20T00:01:33.600Z,7.60
2019-04-20T00:04:03.157Z,7.60
2019-04-20T00:06:41.683Z,7.50
2019-04-20T00:09:14.092Z,7.40
2019-04-20T00:11:49.309Z,7.40
2019-04-20T00:14:18.952Z,7.30
2019-04-20T00:16:46.109Z,7.20
2019-04-20T00:19:24.272Z,7.20
2019-04-20T00:21:58.568Z,7.20
2019-04-20T00:24:39.299Z,7.10
2019-04-20T00:27:32.823Z,7.10
2019-04-20T00:30:00.135Z,7.10
2019-04-20T00:32:29.516Z,7.00
2019-04-20T00:34:50.375Z,7.00
2019-04-20T00:37:21.184Z,6.90
2019-04-20T00:39:53.040Z,6.90
2019-04-20T00:42:33.126Z,6.80
2019-04-20T00:45:05.861Z,6.70
2019-04-20T00:47:37.340Z,6.70
2019-04-20T00:50:23.147Z,6.60
2019-04-20T00:52:50.898Z,6.60
2019-04-20T00:55:06.380Z,6.50
2019-04-20T00:57:46.385Z,6.50
2019-04-20T01:00:26.848Z,6.50
2019-04-20T01:02:54.135Z,6.50
2019-04-20T01:05:46.420Z,6.40
2019-04-20T01:08:25.401Z,6.40
2019-04-20T01:10:58.251Z,6.30
2019-04-20T01:13:30.058Z,6.30
2019-04-20T01:16:06.318Z,6.20
2019-04-20T01:18:32.901Z,6.20
2019-04-20T01:21:06.553Z,6.10
2019-04-20T01:23:43.804Z,6.10
2019-04-20T01:26:12.981Z,6.00
2019-04-20T01:28:54.262Z,6.00
2019-04-20T01:31:22.111Z,6.00
2019-04-20T01:33:57.763Z,6.00
2019-04-20T01:36:37.052Z,6.00
2019-04-20T01:39:05.048Z,5.90
2019-04-20T01:41:22.406Z,5.90
2019-04-20T01:43:54.371Z,5.80
2019-04-20T01:46:28.038Z,5.80
2019-04-20T01:49:00.189Z,5.70
2019-04-20T01:51:39.071Z,5.70
2019-04-20T01:54:22.018Z,5.70
2019-04-20T01:56:53.645Z,5.60
2019-04-20T01:59:37.095Z,5.60
2019-04-20T02:02:29.467Z,5.50
2019-04-20T02:05:11.471Z,5.40
2019-04-20T02:07:41.634Z,5.40
2019-04-20T02:10:11.721Z,5.30
2019-04-20T02:12:42.545Z,5.30
2019-04-20T02:15:23.214Z,5.20
2019-04-20T02:18:20.580Z,5.20
2019-04-20T02:21:06.489Z,5.10
2019-04-20T02:23:49.925Z,5.10
2019-04-20T02:26:36.666Z,5.10
2019-04-20T02:29:59.856Z,5.00
2019-04-20T02:32:22.749Z,5.00
2019-04-20T02:35:14.164Z,5.00
2019-04-20T02:38:02.875Z,4.90
2019-04-20T02:40:39.670Z,4.90
2019-04-20T02:43:15.189Z,4.80
2019-04-20T02:46:04.017Z,4.80
2019-04-20T02:48:32.669Z,4.70
2019-04-20T02:54:15.186Z,4.70
2019-04-20T02:56:45.380Z,4.70
2019-04-20T02:59:31.621Z,4.60
2019-04-20T03:01:40.764Z,4.60
2019-04-20T03:04:40.231Z,4.60
2019-04-20T03:07:50.062Z,4.60
2019-04-20T03:10:26.622Z,4.60
2019-04-20T03:13:32.321Z,4.50
2019-04-20T03:16:45.543Z,4.50
2019-04-20T03:19:17.113Z,4.50
2019-04-20T03:22:05.176Z,4.40
2019-04-20T03:25:24.219Z,4.40
2019-04-20T03:28:14.106Z,4.40
2019-04-20T03:37:12.753Z,4.30
2019-04-20T03:39:57.078Z,4.20
2019-04-20T03:42:33.039Z,4.20
2019-04-20T03:45:23.146Z,4.10
2019-04-20T03:48:06.025Z,4.10
2019-04-20T03:50:46.577Z,4.10
2019-04-20T03:53:22.859Z,4.00
2019-04-20T03:56:11.804Z,4.00
2019-04-20T03:59:11.637Z,4.00
2019-04-20T04:02:37.785Z,3.90
2019-04-20T04:05:04.607Z,3.90
2019-04-20T04:07:43.771Z,3.90
2019-04-20T04:10:58.521Z,3.90
2019-04-20T04:13:17.105Z,3.80
2019-04-20T04:15:55.539Z,3.90
2019-04-20T04:18:29.689Z,3.90
2019-04-20T04:21:03.024Z,3.90
2019-04-20T04:23:48.972Z,3.80
2019-04-20T04:26:22.493Z,3.80
2019-04-20T04:28:56.333Z,3.80
2019-04-20T04:32:05.417Z,3.70
2019-04-20T04:34:59.085Z,3.70
2019-04-20T04:37:53.942Z,3.70
2019-04-20T04:40:58.704Z,3.70
2019-04-20T04:43:06.879Z,3.60
2019-04-20T04:45:19.546Z,3.60
2019-04-20T04:48:14.817Z,3.60
2019-04-20T04:50:49.586Z,3.70
2019-04-20T04:53:28.458Z,3.70
2019-04-20T04:55:56.515Z,3.70
2019-04-20T04:58:21.597Z,3.80
2019-04-20T05:01:03.922Z,3.80
2019-04-20T05:04:09.997Z,3.80
2019-04-20T05:06:58.221Z,3.80
2019-04-20T05:09:20.415Z,3.90
2019-04-20T05:11:59.712Z,3.90
2019-04-20T05:14:38.713Z,4.00
2019-04-20T05:17:48.325Z,4.00
2019-04-20T05:20:15.105Z,4.10
2019-04-20T05:22:55.901Z,4.10
2019-04-20T05:26:05.395Z,4.20
2019-04-20T05:28:27.815Z,4.30
2019-04-20T05:31:13.407Z,4.30
2019-04-20T05:34:08.580Z,4.40
2019-04-20T05:37:11.047Z,4.50
2019-04-20T05:39:32.629Z,4.60
2019-04-20T05:42:16.148Z,4.70
2019-04-20T05:44:45.584Z,4.80
2019-04-20T05:47:34.424Z,4.90
2019-04-20T05:50:21.947Z,5.00
2019-04-20T05:53:30.763Z,5.10
2019-04-20T05:56:03.815Z,5.20
2019-04-20T05:58:38.692Z,5.40
2019-04-20T06:01:52.798Z,5.50
2019-04-20T06:04:41.287Z,5.70
2019-04-20T06:07:06.035Z,5.80
2019-04-20T06:09:42.662Z,5.90
2019-04-20T06:12:25.417Z,6.10
2019-04-20T06:15:04.501Z,6.20
2019-04-20T06:18:01.000Z,6.50
2019-04-20T06:21:00.098Z,6.70
2019-04-20T06:26:43.707Z,7.40
2019-04-20T06:29:54.307Z,7.70
2019-04-20T06:33:31.080Z,8.10
2019-04-20T06:36:38.600Z,8.40
2019-04-20T06:39:18.704Z,8.70
2019-04-20T06:42:59.954Z,9.00
2019-04-20T06:45:35.780Z,9.40
2019-04-20T06:48:11.989Z,9.60
2019-04-20T06:51:25.376Z,9.80
2019-04-20T06:54:16.340Z,10.10
2019-04-20T06:57:07.292Z,10.30
2019-04-20T07:00:08.579Z,10.50
2019-04-20T07:03:47.122Z,10.70
2019-04-20T07:06:54.876Z,11.00
2019-04-20T07:09:47.328Z,11.30
2019-04-20T07:12:43.648Z,11.50
2019-04-20T07:15:39.917Z,11.80
2019-04-20T07:18:43.549Z,11.90
2019-04-20T07:22:02.298Z,12.10
2019-04-20T07:24:30.603Z,12.20
2019-04-20T07:27:00.628Z,12.30
2019-04-20T07:29:40.708Z,12.40
2019-04-20T07:32:09.759Z,12.50
2019-04-20T07:35:08.702Z,12.60
2019-04-20T07:38:08.367Z,12.70
2019-04-20T07:40:35.988Z,12.70
2019-04-20T07:43:31.980Z,12.80
2019-04-20T07:46:20.790Z,12.90
2019-04-20T07:49:12.879Z,13.00
2019-04-20T07:51:29.431Z,13.20
2019-04-20T07:54:35.699Z,13.20
2019-04-20T07:57:24.450Z,13.40
2019-04-20T08:00:04.824Z,13.50
2019-04-20T08:02:57.468Z,13.60
2019-04-20T08:05:54.110Z,13.70
2019-04-20T08:08:30.882Z,13.80
2019-04-20T08:11:56.643Z,13.90
2019-04-20T08:14:33.576Z,14.00
2019-04-20T08:20:17.307Z,14.30
2019-04-20T08:22:47.944Z,14.40
2019-04-20T08:26:00.499Z,14.50
2019-04-20T08:28:36.271Z,14.70
2019-04-20T08:31:50.420Z,14.80
2019-04-20T08:34:53.534Z,14.90
2019-04-20T08:38:05.740Z,15.00
2019-04-20T08:40:40.269Z,15.10
2019-04-20T08:46:38.324Z,15.40
2019-04-20T08:49:22.208Z,15.50
2019-04-20T08:52:43.957Z,15.70
2019-04-20T08:55:09.194Z,15.80
2019-04-20T08:57:51.499Z,16.00
2019-04-20T09:00:33.142Z,16.10
2019-04-20T09:03:28.118Z,16.20
2019-04-20T09:06:06.415Z,16.30
2019-04-20T09:09:22.415Z,16.50
2019-04-20T09:12:09.118Z,16.60
2019-04-20T09:14:46.671Z,16.80
2019-04-20T09:17:32.541Z,17.00
2019-04-20T09:20:31.904Z,17.20
2019-04-20T09:23:31.493Z,17.30
2019-04-20T09:26:24.773Z,17.50
2019-04-20T09:28:59.117Z,17.70
2019-04-20T09:32:09.611Z,17.90
2019-04-20T09:34:57.113Z,18.20
2019-04-20T09:38:14.463Z,18.30
2019-04-20T09:41:45.219Z,18.60
2019-04-20T09:43:52.542Z,18.90
2019-04-20T09:46:56.296Z,19.20
2019-04-20T09:50:00.849Z,19.50
2019-04-20T09:53:20.912Z,19.80
2019-04-20T09:55:59.490Z,20.20
2019-04-20T09:59:08.255Z,20.60
2019-04-20T10:01:45.230Z,21.00
2019-04-20T10:04:55.697Z,21.30
2019-04-20T10:07:48.391Z,21.70
2019-04-20T10:11:03.535Z,21.90
2019-04-20T10:14:06.155Z,22.30
2019-04-20T10:16:56.220Z,22.60
2019-04-20T10:20:14.653Z,22.80
2019-04-20T10:22:38.620Z,23.10
2019-04-20T10:25:50.894Z,23.40
2019-04-20T10:28:43.947Z,23.70
2019-04-20T10:31:24.551Z,24.00
2019-04-20T10:34:15.840Z,24.20
2019-04-20T10:37:24.460Z,24.40
2019-04-20T10:39:56.548Z,24.70
2019-04-20T10:42:48.124Z,24.90
2019-04-20T10:45:39.522Z,25.00
2019-04-20T10:48:52.567Z,25.20
2019-04-20T10:51:24.203Z,25.40
2019-04-20T10:53:56.093Z,25.60
2019-04-20T10:57:10.098Z,25.90
2019-04-20T10:59:50.293Z,26.30
2019-04-20T11:03:15.851Z,26.70
2019-04-20T11:06:12.368Z,27.10
2019-04-20T11:08:44.945Z,27.40
2019-04-20T11:12:04.211Z,27.60
2019-04-20T11:15:36.670Z,28.00
2019-04-20T11:18:07.376Z,28.30
2019-04-20T11:20:49.633Z,28.50
2019-04-20T11:23:20.810Z,28.70
2019-04-20T11:25:52.529Z,28.80
2019-04-20T11:29:18.197Z,29.00
2019-04-20T11:32:13.429Z,29.10
2019-04-20T11:35:13.773Z,29.30
2019-04-20T11:37:55.456Z,29.40
2019-04-20T11:40:28.845Z,29.60
2019-04-20T11:43:22.268Z,29.70
2019-04-20T11:45:56.797Z,29.80
2019-04-20T11:48:57.309Z,29.90
2019-04-20T11:52:19.680Z,30.10
2019-04-20T11:55:28.552Z,30.20
2019-04-20T11:58:38.668Z,30.30
2019-04-20T12:01:38.124Z,30.40
2019-04-20T12:04:40.711Z,30.40
2019-04-20T12:07:08.988Z,30.60
2019-04-20T12:10:13.851Z,30.70
2019-04-20T12:12:59.651Z,30.80
2019-04-20T12:15:45.425Z,30.90
2019-04-20T12:19:10.583Z,31.00
2019-04-20T12:22:00.004Z,31.10
2019-04-20T12:24:34.035Z,31.10
2019-04-20T12:28:21.981Z,31.20
2019-04-20T12:31:19.635Z,31.20
2019-04-20T12:33:52.573Z,31.20
2019-04-20T12:36:23.993Z,31.30
2019-04-20T12:39:35.332Z,31.40
2019-04-20T12:42:17.470Z,31.50
2019-04-20T12:45:05.935Z,31.70
2019-04-20T12:48:23.802Z,31.90
2019-04-20T12:51:36.669Z,32.10
2019-04-20T12:54:06.621Z,32.40
2019-04-20T12:56:56.324Z,32.70
2019-04-20T13:00:03.472Z,33.10
2019-04-20T13:02:51.473Z,33.80
2019-04-20T13:05:22.741Z,34.50
2019-04-20T13:08:33.297Z,35.30
2019-04-20T13:11:34.706Z,36.20
2019-04-20T13:14:52.776Z,37.20
2019-04-20T13:18:23.332Z,38.10
2019-04-20T13:21:19.003Z,38.80
2019-04-20T13:25:07.513Z,39.30
2019-04-20T13:27:58.934Z,39.90
2019-04-20T13:30:50.093Z,40.10
2019-04-20T13:33:51.612Z,40.40
2019-04-20T13:36:40.349Z,40.50
2019-04-20T13:39:36.163Z,40.60
2019-04-20T13:42:20.704Z,40.70
2019-04-20T13:45:24.690Z,40.60
2019-04-20T13:48:04.196Z,40.50
2019-04-20T13:51:02.563Z,40.50
2019-04-20T13:53:33.857Z,40.30
2019-04-20T13:56:19.803Z,40.10
2019-04-20T13:59:24.129Z,39.90
2019-04-20T14:02:33.148Z,39.60
2019-04-20T14:05:22.903Z,39.30
2019-04-20T14:07:53.571Z,39.00
2019-04-20T14:10:53.457Z,38.80
2019-04-20T14:13:54.722Z,38.50
2019-04-20T14:16:43.146Z,38.30
2019-04-20T14:19:38.771Z,38.10
2019-04-20T14:22:29.198Z,37.90
2019-04-20T14:25:05.044Z,37.80
2019-04-20T14:27:55.344Z,37.70
2019-04-20T14:31:05.802Z,37.60
2019-04-20T14:33:55.010Z,37.50
2019-04-20T14:36:27.169Z,37.40
2019-04-20T14:39:06.554Z,37.30
2019-04-20T14:41:40.387Z,37.20
2019-04-20T14:44:32.016Z,37.10
2019-04-20T14:47:03.659Z,37.10
2019-04-20T14:49:36.954Z,37.20
2019-04-20T14:52:09.535Z,37.30
2019-04-20T14:54:41.377Z,37.40
2019-04-20T14:57:13.631Z,37.40
2019-04-20T14:59:52.009Z,37.50
2019-04-20T15:02:25.844Z,37.60
2019-04-20T15:04:57.015Z,37.70
2019-04-20T15:07:28.844Z,37.90
2019-04-20T15:10:00.780Z,38.20
2019-04-20T15:12:44.556Z,38.50
2019-04-20T15:15:04.915Z,38.80
2019-04-20T15:17:43.827Z,39.10
2019-04-20T15:20:27.678Z,39.40
2019-04-20T15:23:05.480Z,39.70
2019-04-20T15:25:37.914Z,40.00
2019-04-20T15:28:08.567Z,40.30
2019-04-20T15:30:40.393Z,40.60
2019-04-20T15:33:14.854Z,40.90
2019-04-20T15:35:46.122Z,41.10
2019-04-20T15:38:18.228Z,41.20
2019-04-20T15:40:49.074Z,41.30
2019-04-20T15:43:27.856Z,41.40
2019-04-20T15:45:59.254Z,41.40
2019-04-20T15:48:32.189Z,41.40
2019-04-20T15:51:07.934Z,41.40
2019-04-20T15:53:41.751Z,41.30
2019-04-20T15:56:13.183Z,41.20
2019-04-20T15:58:46.148Z,41.20
2019-04-20T16:01:20.645Z,41.10
2019-04-20T16:03:59.329Z,40.90
2019-04-20T16:06:31.553Z,40.70
2019-04-20T16:09:04.494Z,40.40
2019-04-20T16:11:35.180Z,40.00
2019-04-20T16:14:07.235Z,39.50
2019-04-20T16:16:37.885Z,39.10
2019-04-20T16:19:13.677Z,38.50
2019-04-20T16:21:41.664Z,37.80
2019-04-20T16:24:15.302Z,36.90
2019-04-20T16:27:17.929Z,36.10
2019-04-20T16:29:49.512Z,35.00
2019-04-20T16:32:24.488Z,34.20
2019-04-20T16:38:43.488Z,32.10
2019-04-20T16:41:14.656Z,31.30
2019-04-20T16:43:46.746Z,30.60
2019-04-20T16:46:20.490Z,29.90
2019-04-20T16:48:57.004Z,29.30
2019-04-20T16:51:32.671Z,28.70
2019-04-20T16:54:03.880Z,28.20
2019-04-20T16:57:33.991Z,27.70
2019-04-20T17:00:05.466Z,27.10
2019-04-20T17:02:36.330Z,26.70
2019-04-20T17:05:07.616Z,26.30
2019-04-20T17:07:42.693Z,26.00
2019-04-20T17:10:17.683Z,25.70
2019-04-20T17:12:48.466Z,25.40
2019-04-20T17:15:21.483Z,25.10
2019-04-20T17:17:53.815Z,24.90
2019-04-20T17:20:27.035Z,24.60
2019-04-20T17:22:58.369Z,24.40
2019-04-20T17:25:30.061Z,24.20
2019-04-20T17:28:33.423Z,24.00
2019-04-20T17:31:20.465Z,23.70
2019-04-20T17:34:04.990Z,23.40
2019-04-20T17:36:32.879Z,23.10
2019-04-20T17:39:11.784Z,22.80
2019-04-20T17:41:56.275Z,22.60
2019-04-20T17:44:28.744Z,22.30
2019-04-20T17:46:59.021Z,22.10
2019-04-20T17:49:36.851Z,21.80
2019-04-20T17:52:18.987Z,21.60
2019-04-20T17:54:35.615Z,21.30
2019-04-20T17:57:09.119Z,21.10
2019-04-20T17:59:47.121Z,20.90
2019-04-20T18:02:49.187Z,20.60
2019-04-20T18:05:44.951Z,20.40
2019-04-20T18:08:15.370Z,20.10
2019-04-20T18:10:44.403Z,19.90
2019-04-20T18:13:09.057Z,19.70
2019-04-20T18:15:51.801Z,19.50
2019-04-20T18:18:40.879Z,19.20
2019-04-20T18:21:04.741Z,19.00
2019-04-20T18:23:41.045Z,18.70
2019-04-20T18:26:30.202Z,18.50
2019-04-20T18:29:05.187Z,18.20
2019-04-20T18:31:31.733Z,18.00
2019-04-20T18:34:17.953Z,17.70
2019-04-20T18:36:48.263Z,17.50
2019-04-20T18:39:31.833Z,17.30
2019-04-20T18:42:03.120Z,17.00
2019-04-20T18:44:55.562Z,16.80
2019-04-20T18:47:31.800Z,16.60
2019-04-20T18:49:50.452Z,16.30
2019-04-20T18:52:16.051Z,16.10
2019-04-20T18:54:49.701Z,15.90
2019-04-20T18:57:24.886Z,15.70
2019-04-20T18:59:54.802Z,15.50
2019-04-20T19:02:30.829Z,15.30
2019-04-20T19:05:05.554Z,15.10
2019-04-20T19:07:51.522Z,14.90
2019-04-20T19:10:23.638Z,14.70
2019-04-20T19:13:01.019Z,14.50
2019-04-20T19:15:53.360Z,14.30
2019-04-20T19:18:36.734Z,14.10
2019-04-20T19:20:57.067Z,14.00
2019-04-20T19:23:29.312Z,13.80
2019-04-20T19:26:09.650Z,13.70
2019-04-20T19:28:45.145Z,13.50
2019-04-20T19:31:25.009Z,13.40
2019-04-20T19:34:03.424Z,13.20
2019-04-20T19:36:28.720Z,13.10
2019-04-20T19:39:08.226Z,12.90
2019-04-20T19:41:38.297Z,12.80
2019-04-20T19:44:10.028Z,12.60
2019-04-20T19:46:55.079Z,12.50
2019-04-20T19:49:25.068Z,12.40
2019-04-20T19:52:27.221Z,12.20
2019-04-20T19:54:46.748Z,12.10
2019-04-20T19:57:28.635Z,12.00
2019-04-20T19:59:44.059Z,11.90
2019-04-20T20:02:18.043Z,11.80
2019-04-20T20:05:02.723Z,11.70
2019-04-20T20:07:44.260Z,11.60
2019-04-20T20:10:20.845Z,11.50
2019-04-20T20:12:54.822Z,11.40
2019-04-20T20:15:29.603Z,11.30
2019-04-20T20:18:23.130Z,11.20
2019-04-20T20:20:57.785Z,11.10
2019-04-20T20:23:14.275Z,11.00
2019-04-20T20:25:49.221Z,10.90
2019-04-20T20:28:31.284Z,10.80
2019-04-20T20:31:01.723Z,10.70
2019-04-20T20:33:43.620Z,10.60
2019-04-20T20:36:11.366Z,10.50
2019-04-20T20:38:40.852Z,10.50
2019-04-20T20:41:25.231Z,10.40
2019-04-20T20:44:06.902Z,10.30
2019-04-20T20:46:43.928Z,10.20
2019-04-20T20:49:21.176Z,10.10
2019-04-20T20:51:54.324Z,10.00
2019-04-20T20:54:25.812Z,10.00
2019-04-20T20:56:52.712Z,9.90
2019-04-20T20:59:30.268Z,9.80
2019-04-20T21:01:54.082Z,9.70
2019-04-20T21:04:21.681Z,9.70
2019-04-20T21:06:52.829Z,9.60
2019-04-20T21:09:25.409Z,9.50
2019-04-20T21:12:01.796Z,9.50
2019-04-20T21:14:31.522Z,9.40
2019-04-20T21:17:12.301Z,9.40
2019-04-20T21:19:56.280Z,9.30
2019-04-20T21:22:17.060Z,9.20
2019-04-20T21:24:48.457Z,9.20
2019-04-20T21:27:21.993Z,9.10
2019-04-20T21:30:18.294Z,9.10
2019-04-20T21:32:50.710Z,9.00
2019-04-20T21:35:19.947Z,8.90
2019-04-20T21:37:58.254Z,8.90
2019-04-20T21:40:34.015Z,8.90
2019-04-20T21:43:02.372Z,8.80
2019-04-20T21:45:34.273Z,8.80
2019-04-20T21:48:09.839Z,8.70
2019-04-20T21:50:57.476Z,8.70
2019-04-20T21:53:15.903Z,8.70
2019-04-20T21:55:41.771Z,8.60
2019-04-20T21:58:14.040Z,8.50
2019-04-20T22:01:12.479Z,8.40
2019-04-20T22:03:34.205Z,8.40
2019-04-20T22:06:08.895Z,8.30
2019-04-20T22:08:49.337Z,8.20
2019-04-20T22:11:15.695Z,8.10
2019-04-20T22:13:49.391Z,8.10
2019-04-20T22:16:20.791Z,8.00
2019-04-20T22:19:09.127Z,7.90
2019-04-20T22:21:37.975Z,7.80
2019-04-20T22:24:10.548Z,7.70
2019-04-20T22:26:39.440Z,7.70
2019-04-20T22:29:02.460Z,7.60
2019-04-20T22:31:34.027Z,7.50
2019-04-20T22:34:10.395Z,7.50
2019-04-20T22:36:43.083Z,7.40
2019-04-20T22:39:32.213Z,7.40
2019-04-20T22:42:03.152Z,7.30
2019-04-20T22:44:32.454Z,7.20
2019-04-20T22:47:05.369Z,7.20
2019-04-20T22:49:49.752Z,7.10
2019-04-20T22:52:26.510Z,7.10
2019-04-20T22:54:54.760Z,7.00
2019-04-20T22:57:29.494Z,7.00
2019-04-20T22:59:55.501Z,6.90
2019-04-20T23:02:22.556Z,6.90
2019-04-20T23:04:52.742Z,6.80
2019-04-20T23:07:23.547Z,6.80
2019-04-20T23:09:57.835Z,6.70
2019-04-20T23:12:30.350Z,6.60
2019-04-20T23:15:00.946Z,6.60
2019-04-20T23:17:38.169Z,6.50
2019-04-20T23:20:13.298Z,6.40
2019-04-20T23:26:30.879Z,6.20
2019-04-20T23:28:59.595Z,6.10
2019-04-20T23:31:30.355Z,6.10
2019-04-20T23:34:09.198Z,6.00
2019-04-20T23:36:39.078Z,6.00
2019-04-20T23:39:08.723Z,6.00
2019-04-20T23:41:43.548Z,5.90
2019-04-20T23:44:29.532Z,5.90
2019-04-20T23:47:11.618Z,5.90
2019-04-20T23:49:55.693Z,5.90
2019-04-20T23:52:35.581Z,5.80
2019-04-20T23:54:53.605Z,5.80
2019-04-20T23:57:19.728Z,5.70
2019-04-20T23:59:52.000Z,5.70
